sensor_id;sensor_type;location;lat;lon;timestamp;temperature;humidity
23435;DHT22;11890;45.380;11.028;2022-10-16T00:01:29;19.50;99.90
23435;DHT22;11890;45.380;11.028;2022-10-16T00:03:58;19.50;99.90
23435;DHT22;11890;45.380;11.028;2022-10-16T00:06:27;19.50;99.90
23435;DHT22;11890;45.380;11.028;2022-10-16T00:08:55;19.50;99.90
23435;DHT22;11890;45.380;11.028;2022-10-16T00:11:28;19.50;99.90
23435;DHT22;11890;45.380;11.028;2022-10-16T00:13:57;19.50;99.90
23435;DHT22;11890;45.380;11.028;2022-10-16T00:16:24;19.40;99.90
23435;DHT22;11890;45.380;11.028;2022-10-16T00:18:52;19.40;99.90
23435;DHT22;11890;45.380;11.028;2022-10-16T00:21:22;19.40;99.90
23435;DHT22;11890;45.380;11.028;2022-10-16T00:23:55;19.30;99.90
23435;DHT22;11890;45.380;11.028;2022-10-16T00:26:27;19.30;99.90
23435;DHT22;11890;45.380;11.028;2022-10-16T00:28:55;19.30;99.90
23435;DHT22;11890;45.380;11.028;2022-10-16T00:31:24;19.30;99.90
23435;DHT22;11890;45.380;11.028;2022-10-16T00:33:52;19.20;99.90
23435;DHT22;11890;45.380;11.028;2022-10-16T00:36:23;19.20;99.90
23435;DHT22;11890;45.380;11.028;2022-10-16T00:38:53;19.20;99.90
23435;DHT22;11890;45.380;11.028;2022-10-16T00:41:23;19.20;99.90
23435;DHT22;11890;45.380;11.028;2022-10-16T00:43:52;19.10;99.90
23435;DHT22;11890;45.380;11.028;2022-10-16T00:49:03;19.10;99.90
23435;DHT22;11890;45.380;11.028;2022-10-16T00:51:39;19.10;99.90
23435;DHT22;11890;45.380;11.028;2022-10-16T00:54:13;19.10;99.90
23435;DHT22;11890;45.380;11.028;2022-10-16T00:56:42;19.00;99.90
23435;DHT22;11890;45.380;11.028;2022-10-16T00:59:15;19.00;99.90
23435;DHT22;11890;45.380;11.028;2022-10-16T01:01:43;19.00;99.90
23435;DHT22;11890;45.380;11.028;2022-10-16T01:04:10;19.00;99.90
23435;DHT22;11890;45.380;11.028;2022-10-16T01:17:22;18.80;99.90
23435;DHT22;11890;45.380;11.028;2022-10-16T01:22:25;18.70;99.90
23435;DHT22;11890;45.380;11.028;2022-10-16T01:25:00;18.70;99.90
23435;DHT22;11890;45.380;11.028;2022-10-16T01:27:35;18.70;99.90
23435;DHT22;11890;45.380;11.028;2022-10-16T01:30:21;18.70;99.90
23435;DHT22;11890;45.380;11.028;2022-10-16T01:32:55;18.70;99.90
23435;DHT22;11890;45.380;11.028;2022-10-16T01:35:30;18.60;99.90
23435;DHT22;11890;45.380;11.028;2022-10-16T01:38:05;18.60;99.90
23435;DHT22;11890;45.380;11.028;2022-10-16T01:40:39;18.60;99.90
23435;DHT22;11890;45.380;11.028;2022-10-16T01:43:14;18.60;99.90
23435;DHT22;11890;45.380;11.028;2022-10-16T01:45:46;18.50;99.90
23435;DHT22;11890;45.380;11.028;2022-10-16T01:48:16;18.50;99.90
23435;DHT22;11890;45.380;11.028;2022-10-16T01:50:57;18.40;99.90
23435;DHT22;11890;45.380;11.028;2022-10-16T01:53:27;18.40;99.90
23435;DHT22;11890;45.380;11.028;2022-10-16T01:55:55;18.40;99.90
23435;DHT22;11890;45.380;11.028;2022-10-16T01:58:28;18.40;99.90
23435;DHT22;11890;45.380;11.028;2022-10-16T02:01:02;18.40;99.90
23435;DHT22;11890;45.380;11.028;2022-10-16T02:03:35;18.40;99.90
23435;DHT22;11890;45.380;11.028;2022-10-16T02:06:04;18.50;99.90
23435;DHT22;11890;45.380;11.028;2022-10-16T02:08:33;18.40;99.90
23435;DHT22;11890;45.380;11.028;2022-10-16T02:11:01;18.50;99.90
23435;DHT22;11890;45.380;11.028;2022-10-16T02:15:59;18.40;99.90
23435;DHT22;11890;45.380;11.028;2022-10-16T02:18:27;18.50;99.90
23435;DHT22;11890;45.380;11.028;2022-10-16T02:21:21;18.50;99.90
23435;DHT22;11890;45.380;11.028;2022-10-16T02:24:19;18.50;99.90
23435;DHT22;11890;45.380;11.028;2022-10-16T02:26:56;18.50;99.90
23435;DHT22;11890;45.380;11.028;2022-10-16T02:29:26;18.50;99.90
23435;DHT22;11890;45.380;11.028;2022-10-16T02:32:00;18.50;99.90
23435;DHT22;11890;45.380;11.028;2022-10-16T02:34:32;18.60;99.90
23435;DHT22;11890;45.380;11.028;2022-10-16T02:37:01;18.60;99.90
23435;DHT22;11890;45.380;11.028;2022-10-16T02:39:31;18.60;99.90
23435;DHT22;11890;45.380;11.028;2022-10-16T02:41:58;18.70;99.90
23435;DHT22;11890;45.380;11.028;2022-10-16T02:44:26;18.60;99.90
23435;DHT22;11890;45.380;11.028;2022-10-16T02:46:53;18.70;99.90
23435;DHT22;11890;45.380;11.028;2022-10-16T02:49:21;18.70;99.90
23435;DHT22;11890;45.380;11.028;2022-10-16T02:51:49;18.70;99.90
23435;DHT22;11890;45.380;11.028;2022-10-16T02:54:16;18.70;99.90
23435;DHT22;11890;45.380;11.028;2022-10-16T02:56:44;18.70;99.90
23435;DHT22;11890;45.380;11.028;2022-10-16T02:59:11;18.70;99.90
23435;DHT22;11890;45.380;11.028;2022-10-16T03:01:38;18.60;99.90
23435;DHT22;11890;45.380;11.028;2022-10-16T03:04:06;18.70;99.90
23435;DHT22;11890;45.380;11.028;2022-10-16T03:06:34;18.70;99.90
23435;DHT22;11890;45.380;11.028;2022-10-16T03:09:01;18.70;99.90
23435;DHT22;11890;45.380;11.028;2022-10-16T03:11:29;18.70;99.90
23435;DHT22;11890;45.380;11.028;2022-10-16T03:13:59;18.70;99.90
23435;DHT22;11890;45.380;11.028;2022-10-16T03:16:26;18.70;99.90
23435;DHT22;11890;45.380;11.028;2022-10-16T03:18:54;18.80;99.90
23435;DHT22;11890;45.380;11.028;2022-10-16T03:21:21;18.80;99.90
23435;DHT22;11890;45.380;11.028;2022-10-16T03:23:49;18.80;99.90
23435;DHT22;11890;45.380;11.028;2022-10-16T03:26:16;18.80;99.90
23435;DHT22;11890;45.380;11.028;2022-10-16T03:28:43;18.70;99.90
23435;DHT22;11890;45.380;11.028;2022-10-16T03:31:12;18.80;99.90
23435;DHT22;11890;45.380;11.028;2022-10-16T03:33:39;18.80;99.90
23435;DHT22;11890;45.380;11.028;2022-10-16T03:36:06;18.70;99.90
23435;DHT22;11890;45.380;11.028;2022-10-16T03:38:34;18.70;99.90
23435;DHT22;11890;45.380;11.028;2022-10-16T03:41:01;18.70;99.90
23435;DHT22;11890;45.380;11.028;2022-10-16T03:43:29;18.70;99.90
23435;DHT22;11890;45.380;11.028;2022-10-16T03:45:56;18.70;99.90
23435;DHT22;11890;45.380;11.028;2022-10-16T03:48:23;18.70;99.90
23435;DHT22;11890;45.380;11.028;2022-10-16T03:50:51;18.70;99.90
23435;DHT22;11890;45.380;11.028;2022-10-16T03:53:18;18.70;99.90
23435;DHT22;11890;45.380;11.028;2022-10-16T03:55:46;18.70;99.90
23435;DHT22;11890;45.380;11.028;2022-10-16T03:58:13;18.70;99.90
23435;DHT22;11890;45.380;11.028;2022-10-16T04:00:46;18.70;99.90
23435;DHT22;11890;45.380;11.028;2022-10-16T04:03:14;18.70;99.90
23435;DHT22;11890;45.380;11.028;2022-10-16T04:05:42;18.70;99.90
23435;DHT22;11890;45.380;11.028;2022-10-16T04:08:09;18.70;99.90
23435;DHT22;11890;45.380;11.028;2022-10-16T04:10:36;18.70;99.90
23435;DHT22;11890;45.380;11.028;2022-10-16T04:13:04;18.70;99.90
23435;DHT22;11890;45.380;11.028;2022-10-16T04:15:31;18.70;99.90
23435;DHT22;11890;45.380;11.028;2022-10-16T04:17:58;18.70;99.90
23435;DHT22;11890;45.380;11.028;2022-10-16T04:20:26;18.70;99.90
23435;DHT22;11890;45.380;11.028;2022-10-16T04:22:53;18.70;99.90
23435;DHT22;11890;45.380;11.028;2022-10-16T04:25:20;18.60;99.90
23435;DHT22;11890;45.380;11.028;2022-10-16T04:27:52;18.60;99.90
23435;DHT22;11890;45.380;11.028;2022-10-16T04:30:21;18.60;99.90
23435;DHT22;11890;45.380;11.028;2022-10-16T04:32:52;18.60;99.90
23435;DHT22;11890;45.380;11.028;2022-10-16T04:35:21;18.50;99.90
23435;DHT22;11890;45.380;11.028;2022-10-16T04:37:48;18.60;99.90
23435;DHT22;11890;45.380;11.028;2022-10-16T04:40:18;18.60;99.90
23435;DHT22;11890;45.380;11.028;2022-10-16T04:42:45;18.60;99.90
23435;DHT22;11890;45.380;11.028;2022-10-16T04:45:13;18.50;99.90
23435;DHT22;11890;45.380;11.028;2022-10-16T04:47:43;18.50;99.90
23435;DHT22;11890;45.380;11.028;2022-10-16T04:50:11;18.50;99.90
23435;DHT22;11890;45.380;11.028;2022-10-16T04:52:38;18.60;99.90
23435;DHT22;11890;45.380;11.028;2022-10-16T04:55:06;18.50;99.90
23435;DHT22;11890;45.380;11.028;2022-10-16T04:57:34;18.50;99.90
23435;DHT22;11890;45.380;11.028;2022-10-16T05:00:02;18.50;99.90
23435;DHT22;11890;45.380;11.028;2022-10-16T05:02:30;18.50;99.90
23435;DHT22;11890;45.380;11.028;2022-10-16T05:04:57;18.50;99.90
23435;DHT22;11890;45.380;11.028;2022-10-16T05:07:24;18.60;99.90
23435;DHT22;11890;45.380;11.028;2022-10-16T05:09:52;18.50;99.90
23435;DHT22;11890;45.380;11.028;2022-10-16T05:12:20;18.60;99.90
23435;DHT22;11890;45.380;11.028;2022-10-16T05:14:50;18.60;99.90
23435;DHT22;11890;45.380;11.028;2022-10-16T05:17:18;18.60;99.90
23435;DHT22;11890;45.380;11.028;2022-10-16T05:19:45;18.60;99.90
23435;DHT22;11890;45.380;11.028;2022-10-16T05:22:13;18.60;99.90
23435;DHT22;11890;45.380;11.028;2022-10-16T05:24:40;18.60;99.90
23435;DHT22;11890;45.380;11.028;2022-10-16T05:27:07;18.60;99.90
23435;DHT22;11890;45.380;11.028;2022-10-16T05:29:35;18.60;99.90
23435;DHT22;11890;45.380;11.028;2022-10-16T05:32:02;18.60;99.90
23435;DHT22;11890;45.380;11.028;2022-10-16T05:34:30;18.60;99.90
23435;DHT22;11890;45.380;11.028;2022-10-16T05:36:57;18.60;99.90
23435;DHT22;11890;45.380;11.028;2022-10-16T05:39:24;18.60;99.90
23435;DHT22;11890;45.380;11.028;2022-10-16T05:41:52;18.60;99.90
23435;DHT22;11890;45.380;11.028;2022-10-16T05:44:19;18.60;99.90
23435;DHT22;11890;45.380;11.028;2022-10-16T05:46:47;18.60;99.90
23435;DHT22;11890;45.380;11.028;2022-10-16T05:49:15;18.50;99.90
23435;DHT22;11890;45.380;11.028;2022-10-16T05:51:42;18.60;99.90
23435;DHT22;11890;45.380;11.028;2022-10-16T05:54:10;18.60;99.90
23435;DHT22;11890;45.380;11.028;2022-10-16T05:56:37;18.60;99.90
23435;DHT22;11890;45.380;11.028;2022-10-16T05:59:05;18.60;99.90
23435;DHT22;11890;45.380;11.028;2022-10-16T06:01:33;18.60;99.90
23435;DHT22;11890;45.380;11.028;2022-10-16T06:04:01;18.60;99.90
23435;DHT22;11890;45.380;11.028;2022-10-16T06:06:29;18.60;99.90
23435;DHT22;11890;45.380;11.028;2022-10-16T06:08:56;18.70;99.90
23435;DHT22;11890;45.380;11.028;2022-10-16T06:11:27;18.70;99.90
23435;DHT22;11890;45.380;11.028;2022-10-16T06:14:00;18.70;99.90
23435;DHT22;11890;45.380;11.028;2022-10-16T06:16:29;18.70;99.90
23435;DHT22;11890;45.380;11.028;2022-10-16T06:19:00;18.70;99.90
23435;DHT22;11890;45.380;11.028;2022-10-16T06:21:28;18.70;99.90
23435;DHT22;11890;45.380;11.028;2022-10-16T06:23:56;18.80;99.90
23435;DHT22;11890;45.380;11.028;2022-10-16T06:26:28;18.70;99.90
23435;DHT22;11890;45.380;11.028;2022-10-16T06:28:58;18.80;99.90
23435;DHT22;11890;45.380;11.028;2022-10-16T06:31:27;18.80;99.90
23435;DHT22;11890;45.380;11.028;2022-10-16T06:33:57;18.80;99.90
23435;DHT22;11890;45.380;11.028;2022-10-16T06:36:25;18.90;99.90
23435;DHT22;11890;45.380;11.028;2022-10-16T06:38:53;18.80;99.90
23435;DHT22;11890;45.380;11.028;2022-10-16T06:41:22;18.90;99.90
23435;DHT22;11890;45.380;11.028;2022-10-16T06:43:50;18.90;99.90
23435;DHT22;11890;45.380;11.028;2022-10-16T06:46:20;19.00;99.90
23435;DHT22;11890;45.380;11.028;2022-10-16T06:48:48;19.00;99.90
23435;DHT22;11890;45.380;11.028;2022-10-16T06:51:25;19.00;99.90
23435;DHT22;11890;45.380;11.028;2022-10-16T06:53:54;19.00;99.90
23435;DHT22;11890;45.380;11.028;2022-10-16T06:56:32;19.00;99.90
23435;DHT22;11890;45.380;11.028;2022-10-16T06:59:00;19.00;99.90
23435;DHT22;11890;45.380;11.028;2022-10-16T07:01:28;18.90;99.90
23435;DHT22;11890;45.380;11.028;2022-10-16T07:03:55;19.00;99.90
23435;DHT22;11890;45.380;11.028;2022-10-16T07:06:24;19.00;99.90
23435;DHT22;11890;45.380;11.028;2022-10-16T07:08:52;19.10;99.90
23435;DHT22;11890;45.380;11.028;2022-10-16T07:11:21;19.10;99.90
23435;DHT22;11890;45.380;11.028;2022-10-16T07:13:50;19.20;99.90
23435;DHT22;11890;45.380;11.028;2022-10-16T07:16:27;19.20;99.90
23435;DHT22;11890;45.380;11.028;2022-10-16T07:18:56;19.30;99.90
23435;DHT22;11890;45.380;11.028;2022-10-16T07:21:29;19.30;99.90
23435;DHT22;11890;45.380;11.028;2022-10-16T07:23:59;19.30;99.90
23435;DHT22;11890;45.380;11.028;2022-10-16T07:26:30;19.30;99.90
23435;DHT22;11890;45.380;11.028;2022-10-16T07:28:58;19.40;99.90
23435;DHT22;11890;45.380;11.028;2022-10-16T07:31:26;19.40;99.90
23435;DHT22;11890;45.380;11.028;2022-10-16T07:33:54;19.40;99.90
23435;DHT22;11890;45.380;11.028;2022-10-16T07:36:21;19.50;99.90
23435;DHT22;11890;45.380;11.028;2022-10-16T07:38:48;19.50;99.90
23435;DHT22;11890;45.380;11.028;2022-10-16T07:41:21;19.60;99.90
23435;DHT22;11890;45.380;11.028;2022-10-16T07:43:50;19.60;99.90
23435;DHT22;11890;45.380;11.028;2022-10-16T07:46:19;19.60;99.90
23435;DHT22;11890;45.380;11.028;2022-10-16T07:48:47;19.60;99.90
23435;DHT22;11890;45.380;11.028;2022-10-16T07:51:23;19.60;99.90
23435;DHT22;11890;45.380;11.028;2022-10-16T07:53:51;19.60;99.90
23435;DHT22;11890;45.380;11.028;2022-10-16T07:56:20;19.60;99.90
23435;DHT22;11890;45.380;11.028;2022-10-16T07:58:48;19.60;99.90
23435;DHT22;11890;45.380;11.028;2022-10-16T08:01:18;19.60;99.90
23435;DHT22;11890;45.380;11.028;2022-10-16T08:03:48;19.70;99.90
23435;DHT22;11890;45.380;11.028;2022-10-16T08:06:17;19.80;99.90
23435;DHT22;11890;45.380;11.028;2022-10-16T08:08:55;19.70;99.90
23435;DHT22;11890;45.380;11.028;2022-10-16T08:11:23;19.80;99.90
23435;DHT22;11890;45.380;11.028;2022-10-16T08:13:50;19.80;99.90
23435;DHT22;11890;45.380;11.028;2022-10-16T08:16:17;19.80;99.90
23435;DHT22;11890;45.380;11.028;2022-10-16T08:18:46;19.90;99.90
23435;DHT22;11890;45.380;11.028;2022-10-16T08:21:16;19.90;99.90
23435;DHT22;11890;45.380;11.028;2022-10-16T08:23:48;19.90;99.90
23435;DHT22;11890;45.380;11.028;2022-10-16T08:26:25;19.90;99.90
23435;DHT22;11890;45.380;11.028;2022-10-16T08:28:55;19.90;99.90
23435;DHT22;11890;45.380;11.028;2022-10-16T08:31:23;19.90;99.90
23435;DHT22;11890;45.380;11.028;2022-10-16T08:33:51;19.90;99.90
23435;DHT22;11890;45.380;11.028;2022-10-16T08:36:22;19.90;99.90
23435;DHT22;11890;45.380;11.028;2022-10-16T08:38:50;20.10;99.90
23435;DHT22;11890;45.380;11.028;2022-10-16T08:49:24;20.70;99.90
23435;DHT22;11890;45.380;11.028;2022-10-16T08:51:52;20.80;99.90
23435;DHT22;11890;45.380;11.028;2022-10-16T08:54:36;20.90;99.90
23435;DHT22;11890;45.380;11.028;2022-10-16T08:59:44;21.20;99.90
23435;DHT22;11890;45.380;11.028;2022-10-16T09:02:35;21.30;99.90
23435;DHT22;11890;45.380;11.028;2022-10-16T09:08:03;21.60;99.90
23435;DHT22;11890;45.380;11.028;2022-10-16T09:10:55;21.80;99.90
23435;DHT22;11890;45.380;11.028;2022-10-16T09:13:47;21.90;99.90
23435;DHT22;11890;45.380;11.028;2022-10-16T09:16:33;21.90;99.90
23435;DHT22;11890;45.380;11.028;2022-10-16T09:21:54;22.00;99.90
23435;DHT22;11890;45.380;11.028;2022-10-16T09:24:25;22.20;99.90
23435;DHT22;11890;45.380;11.028;2022-10-16T09:26:55;22.30;99.90
23435;DHT22;11890;45.380;11.028;2022-10-16T09:29:22;22.30;99.90
23435;DHT22;11890;45.380;11.028;2022-10-16T09:31:55;22.40;99.90
23435;DHT22;11890;45.380;11.028;2022-10-16T09:34:32;22.60;99.90
23435;DHT22;11890;45.380;11.028;2022-10-16T09:37:05;22.70;99.90
23435;DHT22;11890;45.380;11.028;2022-10-16T09:39:46;22.80;99.90
23435;DHT22;11890;45.380;11.028;2022-10-16T09:42:27;22.90;99.90
23435;DHT22;11890;45.380;11.028;2022-10-16T09:44:56;23.00;99.90
23435;DHT22;11890;45.380;11.028;2022-10-16T09:47:26;23.20;99.90
23435;DHT22;11890;45.380;11.028;2022-10-16T09:50:04;23.30;99.90
23435;DHT22;11890;45.380;11.028;2022-10-16T09:52:33;23.50;99.90
23435;DHT22;11890;45.380;11.028;2022-10-16T09:55:09;23.60;99.90
23435;DHT22;11890;45.380;11.028;2022-10-16T09:57:52;23.70;99.90
23435;DHT22;11890;45.380;11.028;2022-10-16T10:00:22;23.90;99.90
23435;DHT22;11890;45.380;11.028;2022-10-16T10:02:50;24.00;99.90
23435;DHT22;11890;45.380;11.028;2022-10-16T10:05:26;24.20;99.90
23435;DHT22;11890;45.380;11.028;2022-10-16T10:08:00;24.40;99.90
23435;DHT22;11890;45.380;11.028;2022-10-16T10:10:32;24.50;99.90
23435;DHT22;11890;45.380;11.028;2022-10-16T10:13:00;24.90;99.90
23435;DHT22;11890;45.380;11.028;2022-10-16T10:15:33;25.60;99.90
23435;DHT22;11890;45.380;11.028;2022-10-16T10:18:01;26.90;99.90
23435;DHT22;11890;45.380;11.028;2022-10-16T10:20:35;28.40;99.90
23435;DHT22;11890;45.380;11.028;2022-10-16T10:23:25;30.00;97.90
23435;DHT22;11890;45.380;11.028;2022-10-16T10:26:05;31.50;95.30
23435;DHT22;11890;45.380;11.028;2022-10-16T10:37:26;34.80;82.00
23435;DHT22;11890;45.380;11.028;2022-10-16T10:42:56;35.30;78.10
23435;DHT22;11890;45.380;11.028;2022-10-16T10:45:28;35.50;76.60
23435;DHT22;11890;45.380;11.028;2022-10-16T10:48:18;35.70;76.40
23435;DHT22;11890;45.380;11.028;2022-10-16T10:50:52;35.80;75.60
23435;DHT22;11890;45.380;11.028;2022-10-16T10:53:24;36.00;74.00
23435;DHT22;11890;45.380;11.028;2022-10-16T10:57:13;35.80;73.30
23435;DHT22;11890;45.380;11.028;2022-10-16T11:02:26;35.10;74.10
23435;DHT22;11890;45.380;11.028;2022-10-16T11:07:40;35.00;74.80
23435;DHT22;11890;45.380;11.028;2022-10-16T11:10:16;35.70;73.70
23435;DHT22;11890;45.380;11.028;2022-10-16T11:12:52;36.40;71.80
23435;DHT22;11890;45.380;11.028;2022-10-16T11:15:32;37.50;69.20
23435;DHT22;11890;45.380;11.028;2022-10-16T11:18:15;37.80;67.30
23435;DHT22;11890;45.380;11.028;2022-10-16T11:20:49;37.80;66.40
23435;DHT22;11890;45.380;11.028;2022-10-16T11:23:30;37.60;66.00
23435;DHT22;11890;45.380;11.028;2022-10-16T11:26:03;37.20;66.30
23435;DHT22;11890;45.380;11.028;2022-10-16T11:28:38;36.10;68.30
23435;DHT22;11890;45.380;11.028;2022-10-16T11:31:26;34.50;71.30
23435;DHT22;11890;45.380;11.028;2022-10-16T11:34:12;32.50;75.30
23435;DHT22;11890;45.380;11.028;2022-10-16T11:36:53;31.40;78.70
23435;DHT22;11890;45.380;11.028;2022-10-16T11:39:30;31.00;79.90
23435;DHT22;11890;45.380;11.028;2022-10-16T11:50:31;31.10;81.00
23435;DHT22;11890;45.380;11.028;2022-10-16T11:55:36;31.00;80.10
23435;DHT22;11890;45.380;11.028;2022-10-16T12:08:53;32.70;75.60
23435;DHT22;11890;45.380;11.028;2022-10-16T12:11:36;31.50;78.30
23435;DHT22;11890;45.380;11.028;2022-10-16T12:16:58;30.10;81.80
23435;DHT22;11890;45.380;11.028;2022-10-16T12:19:28;29.50;84.00
23435;DHT22;11890;45.380;11.028;2022-10-16T12:21:58;29.00;84.90
23435;DHT22;11890;45.380;11.028;2022-10-16T12:24:38;28.60;86.90
23435;DHT22;11890;45.380;11.028;2022-10-16T12:29:55;28.90;85.80
23435;DHT22;11890;45.380;11.028;2022-10-16T12:32:37;28.90;85.80
23435;DHT22;11890;45.380;11.028;2022-10-16T12:35:27;29.10;86.70
23435;DHT22;11890;45.380;11.028;2022-10-16T12:38:12;29.10;85.90
23435;DHT22;11890;45.380;11.028;2022-10-16T12:41:00;28.70;87.10
23435;DHT22;11890;45.380;11.028;2022-10-16T12:43:38;28.40;89.80
23435;DHT22;11890;45.380;11.028;2022-10-16T12:48:37;27.70;89.80
23435;DHT22;11890;45.380;11.028;2022-10-16T13:02:14;27.30;91.10
23435;DHT22;11890;45.380;11.028;2022-10-16T13:07:43;27.30;90.60
23435;DHT22;11890;45.380;11.028;2022-10-16T13:18:33;26.60;91.90
23435;DHT22;11890;45.380;11.028;2022-10-16T13:29:33;26.30;92.90
23435;DHT22;11890;45.380;11.028;2022-10-16T13:32:07;26.20;93.10
23435;DHT22;11890;45.380;11.028;2022-10-16T13:34:47;26.20;93.40
23435;DHT22;11890;45.380;11.028;2022-10-16T13:37:24;26.10;93.60
23435;DHT22;11890;45.380;11.028;2022-10-16T13:40:07;26.20;93.50
23435;DHT22;11890;45.380;11.028;2022-10-16T13:42:39;26.10;93.50
23435;DHT22;11890;45.380;11.028;2022-10-16T13:45:18;26.10;93.30
23435;DHT22;11890;45.380;11.028;2022-10-16T13:47:46;26.00;93.60
23435;DHT22;11890;45.380;11.028;2022-10-16T13:50:16;25.90;93.90
23435;DHT22;11890;45.380;11.028;2022-10-16T13:52:44;25.80;93.70
23435;DHT22;11890;45.380;11.028;2022-10-16T13:55:13;25.80;94.10
23435;DHT22;11890;45.380;11.028;2022-10-16T13:57:42;25.70;94.40
23435;DHT22;11890;45.380;11.028;2022-10-16T14:00:25;25.70;94.30
23435;DHT22;11890;45.380;11.028;2022-10-16T14:03:17;25.50;94.60
23435;DHT22;11890;45.380;11.028;2022-10-16T14:05:51;25.50;94.50
23435;DHT22;11890;45.380;11.028;2022-10-16T14:08:19;25.40;95.10
23435;DHT22;11890;45.380;11.028;2022-10-16T14:10:49;25.30;95.30
23435;DHT22;11890;45.380;11.028;2022-10-16T14:13:40;25.20;94.90
23435;DHT22;11890;45.380;11.028;2022-10-16T14:16:08;25.10;95.30
23435;DHT22;11890;45.380;11.028;2022-10-16T14:18:38;25.00;95.20
23435;DHT22;11890;45.380;11.028;2022-10-16T14:21:12;25.00;95.30
23435;DHT22;11890;45.380;11.028;2022-10-16T14:23:41;25.00;95.40
23435;DHT22;11890;45.380;11.028;2022-10-16T14:28:37;24.90;97.00
23435;DHT22;11890;45.380;11.028;2022-10-16T14:33:46;24.80;97.10
23435;DHT22;11890;45.380;11.028;2022-10-16T14:36:15;24.80;97.80
23435;DHT22;11890;45.380;11.028;2022-10-16T14:38:58;24.70;98.00
23435;DHT22;11890;45.380;11.028;2022-10-16T14:41:26;24.70;98.10
23435;DHT22;11890;45.380;11.028;2022-10-16T14:43:56;24.60;97.90
23435;DHT22;11890;45.380;11.028;2022-10-16T14:46:35;24.60;97.80
23435;DHT22;11890;45.380;11.028;2022-10-16T14:51:37;24.60;98.70
23435;DHT22;11890;45.380;11.028;2022-10-16T14:54:07;24.60;99.00
23435;DHT22;11890;45.380;11.028;2022-10-16T14:56:56;24.50;99.00
23435;DHT22;11890;45.380;11.028;2022-10-16T14:59:35;24.50;99.20
23435;DHT22;11890;45.380;11.028;2022-10-16T15:04:44;24.40;99.50
23435;DHT22;11890;45.380;11.028;2022-10-16T15:07:12;24.40;99.50
23435;DHT22;11890;45.380;11.028;2022-10-16T15:09:39;24.30;99.80
23435;DHT22;11890;45.380;11.028;2022-10-16T15:12:11;24.30;99.90
23435;DHT22;11890;45.380;11.028;2022-10-16T15:14:38;24.30;99.90
23435;DHT22;11890;45.380;11.028;2022-10-16T15:17:10;24.20;99.90
23435;DHT22;11890;45.380;11.028;2022-10-16T15:19:38;24.10;99.90
23435;DHT22;11890;45.380;11.028;2022-10-16T15:22:05;24.10;99.90
23435;DHT22;11890;45.380;11.028;2022-10-16T15:24:33;24.00;99.90
23435;DHT22;11890;45.380;11.028;2022-10-16T15:27:00;24.00;99.90
23435;DHT22;11890;45.380;11.028;2022-10-16T15:29:27;23.90;99.90
23435;DHT22;11890;45.380;11.028;2022-10-16T15:31:55;23.90;99.90
23435;DHT22;11890;45.380;11.028;2022-10-16T15:34:22;23.80;99.90
23435;DHT22;11890;45.380;11.028;2022-10-16T15:36:49;23.80;99.90
23435;DHT22;11890;45.380;11.028;2022-10-16T15:39:19;23.80;99.90
23435;DHT22;11890;45.380;11.028;2022-10-16T15:41:47;23.70;99.90
23435;DHT22;11890;45.380;11.028;2022-10-16T15:44:18;23.70;99.90
23435;DHT22;11890;45.380;11.028;2022-10-16T15:46:46;23.70;99.90
23435;DHT22;11890;45.380;11.028;2022-10-16T15:49:17;23.60;99.90
23435;DHT22;11890;45.380;11.028;2022-10-16T15:51:45;23.60;99.90
23435;DHT22;11890;45.380;11.028;2022-10-16T15:54:13;23.50;99.90
23435;DHT22;11890;45.380;11.028;2022-10-16T15:56:40;23.50;99.90
23435;DHT22;11890;45.380;11.028;2022-10-16T15:59:08;23.40;99.90
23435;DHT22;11890;45.380;11.028;2022-10-16T16:01:35;23.40;99.90
23435;DHT22;11890;45.380;11.028;2022-10-16T16:04:03;23.30;99.90
23435;DHT22;11890;45.380;11.028;2022-10-16T16:06:46;23.20;99.90
23435;DHT22;11890;45.380;11.028;2022-10-16T16:09:14;23.20;99.90
23435;DHT22;11890;45.380;11.028;2022-10-16T16:11:42;23.20;99.90
23435;DHT22;11890;45.380;11.028;2022-10-16T16:14:13;23.20;99.90
23435;DHT22;11890;45.380;11.028;2022-10-16T16:16:41;23.20;99.90
23435;DHT22;11890;45.380;11.028;2022-10-16T16:19:09;23.10;99.90
23435;DHT22;11890;45.380;11.028;2022-10-16T16:21:38;23.10;99.90
23435;DHT22;11890;45.380;11.028;2022-10-16T16:24:06;23.00;99.90
23435;DHT22;11890;45.380;11.028;2022-10-16T16:26:36;23.00;99.90
23435;DHT22;11890;45.380;11.028;2022-10-16T16:29:06;23.00;99.90
23435;DHT22;11890;45.380;11.028;2022-10-16T16:31:34;23.00;99.90
23435;DHT22;11890;45.380;11.028;2022-10-16T16:34:02;22.80;99.90
23435;DHT22;11890;45.380;11.028;2022-10-16T16:36:33;22.80;99.90
23435;DHT22;11890;45.380;11.028;2022-10-16T16:39:01;22.80;99.90
23435;DHT22;11890;45.380;11.028;2022-10-16T16:41:29;22.80;99.90
23435;DHT22;11890;45.380;11.028;2022-10-16T16:44:05;22.70;99.90
23435;DHT22;11890;45.380;11.028;2022-10-16T16:46:35;22.70;99.90
23435;DHT22;11890;45.380;11.028;2022-10-16T16:49:03;22.70;99.90
23435;DHT22;11890;45.380;11.028;2022-10-16T16:51:30;22.60;99.90
23435;DHT22;11890;45.380;11.028;2022-10-16T16:54:01;22.60;99.90
23435;DHT22;11890;45.380;11.028;2022-10-16T16:56:29;22.60;99.90
23435;DHT22;11890;45.380;11.028;2022-10-16T16:58:57;22.50;99.90
23435;DHT22;11890;45.380;11.028;2022-10-16T17:01:27;22.50;99.90
23435;DHT22;11890;45.380;11.028;2022-10-16T17:03:56;22.50;99.90
23435;DHT22;11890;45.380;11.028;2022-10-16T17:06:28;22.40;99.90
23435;DHT22;11890;45.380;11.028;2022-10-16T17:09:01;22.40;99.90
23435;DHT22;11890;45.380;11.028;2022-10-16T17:11:30;22.30;99.90
23435;DHT22;11890;45.380;11.028;2022-10-16T17:13:59;22.30;99.90
23435;DHT22;11890;45.380;11.028;2022-10-16T17:16:32;22.20;99.90
23435;DHT22;11890;45.380;11.028;2022-10-16T17:19:03;22.10;99.90
23435;DHT22;11890;45.380;11.028;2022-10-16T17:21:31;22.10;99.90
23435;DHT22;11890;45.380;11.028;2022-10-16T17:23:59;22.00;99.90
23435;DHT22;11890;45.380;11.028;2022-10-16T17:26:27;22.00;99.90
23435;DHT22;11890;45.380;11.028;2022-10-16T17:28:57;22.00;99.90
23435;DHT22;11890;45.380;11.028;2022-10-16T17:31:28;22.00;99.90
23435;DHT22;11890;45.380;11.028;2022-10-16T17:33:57;22.10;99.90
23435;DHT22;11890;45.380;11.028;2022-10-16T17:36:25;22.10;99.90
23435;DHT22;11890;45.380;11.028;2022-10-16T17:39:02;22.10;99.90
23435;DHT22;11890;45.380;11.028;2022-10-16T17:41:31;22.10;99.90
23435;DHT22;11890;45.380;11.028;2022-10-16T17:44:03;22.10;99.90